Casa Blanca, California
Current Conditions -  °F | °C
As of 10:53 AM on Monday 20 Oct 2014 (Local Time) from KRAL Reporting Station
Haze Haze  
Wind Chill: 64°   Ceiling: 700
Heat Index: 64°   Visibility: 2mi
Dew Point: 60°   Wind: 0mph
Humidity: 87%   Direction: NA
Pressure: 29.97"   Gusts: NA
Location:  33.9119°N, 117.4°W
Report Text: KRAL 201753Z 00000KT 2SM BR OVC007 18/16 A2997 RMK AO2 SLP135 T01780156 10178 20144 51009
Loading
Personal Weather Stations






























Interactive Weather Map
Tropical Storm Tracking
New forecast layout! Learn more

10-Day Weather Forecast

Advertisements
Track Severe Weather on mobile